• Join FlightAware (Why Join?)
  • Login
  • US Flag 
03:35PM EDT


 

Airport Tracker/Info


-or-


 

Live Flight TrackerFlight Track Log ✈ SWA34 ✈ 26-Apr-2013 ✈ KTUL - KSTL

Flight Track Log - Related Links

Times and Time Zones

All times are in EDT time to prevent confusion due to time zone crossing. See the SWA34 flight status page for this flight to view local times or setup timezone preferences in your user account.

Time Position Orientation Groundspeed Altitude Reporting Facility
EDT Latitude Longitude Course Direction KTS MPH feet Rate Location/Type
06:56PM 36.2000 -95.7981 89° East 208 239 3,400  Level Kansas City Center
06:57PM 36.2075 -95.7414 81° East 231 266 4,900 2,220 Climbing Kansas City Center
06:58PM 36.2481 -95.6503 61° Northeast 280 322 7,500 2,880 Climbing Kansas City Center
06:59PM 36.2931 -95.5572 59° Northeast 302 348 10,800 2,820 Climbing Kansas City Center
07:00PM 36.3561 -95.4333 58° Northeast 350 403 13,400 2,640 Climbing Kansas City Center
07:01PM 36.4139 -95.3131 59° Northeast 388 447 16,300 2,520 Climbing Kansas City Center
07:02PM 36.4725 -95.1931 59° Northeast 403 464 18,700 2,220 Climbing Kansas City Center
07:03PM 36.5286 -95.0786 59° Northeast 414 476 21,000 2,220 Climbing Kansas City Center
07:04PM 36.6039 -94.9228 59° Northeast 427 491 23,300 2,040 Climbing Kansas City Center
07:05PM 36.6714 -94.7861 58° Northeast 445 512 25,300 1,980 Climbing Kansas City Center
07:06PM 36.7481 -94.6597 53° Northeast 454 522 27,500 1,680 Climbing Kansas City Center
07:07PM 36.8272 -94.5317 52° Northeast 459 528 28,800 1,260 Climbing Kansas City Center
07:08PM 36.9072 -94.3989 53° Northeast 469 540 30,200 1,200 Climbing Kansas City Center
07:09PM 36.9886 -94.2639 53° Northeast 482 555 31,400 1,380 Climbing Kansas City Center
07:10PM 37.0703 -94.1244 54° Northeast 494 568 33,100 1,680 Climbing Kansas City Center
07:11PM 37.1519 -93.9892 53° Northeast 484 557 34,800 900 Climbing Kansas City Center
07:12PM 37.2486 -93.8264 53° Northeast 483 556 35,000 60 Climbing Kansas City Center
07:13PM 37.3269 -93.6853 55° Northeast 491 565 35,000  Level Kansas City Center
07:14PM 37.3922 -93.5308 62° Northeast 497 572 35,000  Level Kansas City Center
07:15PM 37.4608 -93.3819 60° Northeast 493 567 35,000  Level Kansas City Center
07:16PM 37.5356 -93.2417 56° Northeast 484 557 35,000  Level Kansas City Center
07:17PM 37.6250 -93.1156 48° Northeast 481 554 35,000  Level Kansas City Center
07:18PM 37.7136 -92.9833 50° Northeast 489 563 35,000  Level Kansas City Center
07:19PM 37.8014 -92.8508 50° Northeast 490 564 35,000 -480 Level Kansas City Center
07:20PM 37.8958 -92.7083 50° Northeast 488 562 34,100 -900 Descending Kansas City Center
07:21PM 37.9736 -92.5678 55° Northeast 487 560 33,200 -960 Descending Kansas City Center
07:22PM 38.0508 -92.4256 55° Northeast 490 564 32,200 -1,440 Descending Kansas City Center
07:24PM 38.1281 -92.2789 56° Northeast 496 571 30,200 -2,520 Descending Kansas City Center
07:25PM 38.2239 -92.1019 55° Northeast 497 572 27,000 -2,460 Descending Kansas City Center
07:26PM 38.2975 -91.9603 56° Northeast 484 557 25,300 -1,380 Descending Kansas City Center
07:27PM 38.3575 -91.8308 59° Northeast 437 503 24,200 -1,980 Descending Kansas City Center
07:28PM 38.4178 -91.7014 59° Northeast 424 488 21,200 -2,340 Descending Kansas City Center
07:29PM 38.4792 -91.5706 59° Northeast 426 490 19,400 -1,860 Descending Kansas City Center
07:30PM 38.5369 -91.4458 59° Northeast 412 474 17,500 -2,460 Descending Kansas City Center
07:31PM 38.5931 -91.3247 59° Northeast 416 479 14,500 -2,280 Descending Kansas City Center
07:32PM 38.6508 -91.1994 59° Northeast 413 475 12,800 -1,380 Descending Kansas City Center
07:33PM 38.6986 -91.0764 64° Northeast 329 379 11,700 -1,740 Descending Kansas City Center
07:34PM 38.7264 -90.9797 70° East 298 343 9,300 -1,920 Descending Kansas City Center
07:35PM 38.7567 -90.8803 69° East 298 343 7,800 -1,320 Descending Kansas City Center
07:36PM 38.7817 -90.7925 70° East 265 305 6,700 -1,080 Descending Kansas City Center
07:37PM 38.8058 -90.7142 68° East 242 278 5,600 -1,140 Descending Kansas City Center
07:38PM 38.8275 -90.6378 70° East 231 266 4,500 -1,140 Descending Kansas City Center
07:39PM 38.8439 -90.5619 74° East 225 259 3,300 -1,080 Descending Kansas City Center
07:40PM 38.8142 -90.5017 122° Southeast 210 242 2,400 -720 Descending Kansas City Center
07:41PM 38.7886 -90.4497 122° Southeast 190 219 1,900 -660 Descending Kansas City Center
07:42PM 38.7647 -90.4011 122° Southeast 148 170 1,100 -660 Descending Kansas City Center
07:43PM 38.7483 -90.3656 121° Southeast 139 160 600 -540 Descending Kansas City Center
07:45PM 38.7487 -90.3700 270° West  Level Estimated